TimeCDT,TemperatureF,Dew PointF,Humidity,Sea Level PressureIn,VisibilityMPH,Wind Direction,Wind SpeedMPH,Gust SpeedMPH,PrecipitationIn,Events,Conditions,WindDirDegrees,DateUTC
12:55 AM,62.8,61.9,97,30.22,10.0,Calm,Calm,-,N/A,,Clear,0,2012-03-14 05:55:00
1:47 AM,60.8,59.0,94,30.21,1.8,Calm,Calm,-,N/A,,Clear,0,2012-03-14 06:47:00
1:48 AM,59.0,59.0,100,30.21,1.2,Calm,Calm,-,N/A,,Clear,0,2012-03-14 06:48:00
1:49 AM,59.0,59.0,100,30.21,0.8,Calm,Calm,-,N/A,,Clear,0,2012-03-14 06:49:00
1:51 AM,59.0,59.0,100,30.21,0.5,Calm,Calm,-,N/A,Fog,Fog,0,2012-03-14 06:51:00
1:55 AM,59.9,59.5,99,30.21,0.5,Calm,Calm,-,N/A,Fog,Fog,0,2012-03-14 06:55:00
2:00 AM,60.8,59.0,94,30.21,0.8,Calm,Calm,-,N/A,,Partly Cloudy,0,2012-03-14 07:00:00
2:03 AM,59.0,59.0,100,30.21,1.0,Calm,Calm,-,N/A,,Partly Cloudy,0,2012-03-14 07:03:00
2:04 AM,59.0,59.0,100,30.21,1.2,Calm,Calm,-,N/A,,Partly Cloudy,0,2012-03-14 07:04:00
2:05 AM,59.0,59.0,100,30.21,1.5,Calm,Calm,-,N/A,,Partly Cloudy,0,2012-03-14 07:05:00
2:07 AM,60.8,59.0,94,30.21,2.0,Calm,Calm,-,N/A,,Partly Cloudy,0,2012-03-14 07:07:00
2:11 AM,60.8,60.8,100,30.21,4.0,Calm,Calm,-,N/A,,Partly Cloudy,0,2012-03-14 07:11:00
2:35 AM,60.8,60.8,100,30.20,2.5,Calm,Calm,-,N/A,,Scattered Clouds,0,2012-03-14 07:35:00
2:37 AM,60.8,60.8,100,30.20,1.8,Calm,Calm,-,N/A,,Scattered Clouds,0,2012-03-14 07:37:00
2:40 AM,60.8,60.8,100,30.20,1.2,Calm,Calm,-,N/A,,Scattered Clouds,0,2012-03-14 07:40:00
2:41 AM,60.8,60.8,100,30.20,1.5,Calm,Calm,-,N/A,,Scattered Clouds,0,2012-03-14 07:41:00
2:45 AM,60.8,60.8,100,30.20,2.0,Calm,Calm,-,N/A,,Scattered Clouds,0,2012-03-14 07:45:00
2:48 AM,60.8,60.8,100,30.20,4.0,Calm,Calm,-,N/A,,Partly Cloudy,0,2012-03-14 07:48:00
2:54 AM,60.8,60.8,100,30.20,5.0,Calm,Calm,-,N/A,,Partly Cloudy,0,2012-03-14 07:54:00
2:55 AM,61.2,60.8,99,30.19,5.0,Calm,Calm,-,N/A,,Partly Cloudy,0,2012-03-14 07:55:00
3:03 AM,60.8,60.8,100,30.19,4.0,Calm,Calm,-,N/A,,Mostly Cloudy,0,2012-03-14 08:03:00
3:10 AM,60.8,60.8,100,30.19,2.5,Calm,Calm,-,N/A,,Mostly Cloudy,0,2012-03-14 08:10:00
3:12 AM,60.8,60.8,100,30.19,1.5,Calm,Calm,-,N/A,,Mostly Cloudy,0,2012-03-14 08:12:00
3:13 AM,60.8,60.8,100,30.19,1.0,Calm,Calm,-,N/A,,Mist,0,2012-03-14 08:13:00
3:14 AM,60.8,60.8,100,30.19,0.8,Calm,Calm,-,N/A,,Mist,0,2012-03-14 08:14:00
3:15 AM,60.8,60.8,100,30.19,0.5,Calm,Calm,-,N/A,Fog,Fog,0,2012-03-14 08:15:00
3:17 AM,60.8,60.8,100,30.19,0.2,Calm,Calm,-,N/A,Fog,Fog,0,2012-03-14 08:17:00
3:20 AM,60.8,60.8,100,30.19,0.2,Calm,Calm,-,N/A,Fog,Fog,0,2012-03-14 08:20:00
3:21 AM,60.8,60.8,100,30.19,0.2,Calm,Calm,-,N/A,Fog,Fog,0,2012-03-14 08:21:00
3:55 AM,59.4,59.2,99,30.19,0.2,Calm,Calm,-,N/A,Fog,Fog,0,2012-03-14 08:55:00
4:47 AM,59.0,59.0,100,30.20,0.2,Calm,Calm,-,N/A,Fog,Fog,0,2012-03-14 09:47:00
4:55 AM,59.2,58.8,99,30.21,0.2,Calm,Calm,-,N/A,Fog,Fog,0,2012-03-14 09:55:00
4:58 AM,59.0,59.0,100,30.21,0.2,Calm,Calm,-,N/A,Fog,Fog,0,2012-03-14 09:58:00
5:11 AM,59.0,59.0,100,30.21,0.2,Calm,Calm,-,N/A,Fog,Fog,0,2012-03-14 10:11:00
5:12 AM,59.0,59.0,100,30.21,0.2,Calm,Calm,-,N/A,Fog,Fog,0,2012-03-14 10:12:00
5:31 AM,59.0,59.0,100,30.22,0.2,Calm,Calm,-,N/A,Fog,Fog,0,2012-03-14 10:31:00
5:55 AM,58.8,58.6,99,30.23,0.5,Calm,Calm,-,N/A,Fog,Fog,0,2012-03-14 10:55:00
5:56 AM,59.0,59.0,100,30.23,0.5,Calm,Calm,-,N/A,Fog,Fog,0,2012-03-14 10:56:00
6:12 AM,59.0,59.0,100,30.24,0.5,Calm,Calm,-,N/A,Fog,Fog,0,2012-03-14 11:12:00
6:13 AM,59.0,59.0,100,30.24,0.2,Calm,Calm,-,N/A,Fog,Fog,0,2012-03-14 11:13:00
6:22 AM,59.0,59.0,100,30.24,0.2,Calm,Calm,-,N/A,Fog,Fog,0,2012-03-14 11:22:00
6:32 AM,59.0,59.0,100,30.24,0.2,Calm,Calm,-,N/A,Fog,Fog,0,2012-03-14 11:32:00
6:35 AM,59.0,59.0,100,30.24,0.2,Calm,Calm,-,N/A,Fog,Fog,0,2012-03-14 11:35:00
6:37 AM,59.0,59.0,100,30.24,0.2,Calm,Calm,-,N/A,Fog,Fog,0,2012-03-14 11:37:00
6:42 AM,59.0,59.0,100,30.24,0.2,Calm,Calm,-,N/A,Fog,Fog,0,2012-03-14 11:42:00
6:43 AM,59.0,59.0,100,30.24,0.2,Calm,Calm,-,N/A,Fog,Fog,0,2012-03-14 11:43:00
6:44 AM,59.0,59.0,100,30.24,0.2,Calm,Calm,-,N/A,Fog,Fog,0,2012-03-14 11:44:00
6:55 AM,58.1,57.7,99,30.25,0.2,Calm,Calm,-,N/A,Fog,Fog,0,2012-03-14 11:55:00
6:57 AM,57.2,57.2,100,30.25,0.2,Calm,Calm,-,N/A,Fog,Fog,0,2012-03-14 11:57:00
6:59 AM,57.2,57.2,100,30.25,0.2,Calm,Calm,-,N/A,Fog,Fog,0,2012-03-14 11:59:00
7:02 AM,57.2,57.2,100,30.25,0.2,Calm,Calm,-,N/A,Fog,Fog,0,2012-03-14 12:02:00
7:04 AM,57.2,57.2,100,30.25,0.5,Calm,Calm,-,N/A,Fog,Fog,0,2012-03-14 12:04:00
7:11 AM,57.2,57.2,100,30.25,0.5,Calm,Calm,-,N/A,Fog,Fog,0,2012-03-14 12:11:00
7:16 AM,57.2,57.2,100,30.26,0.5,Calm,Calm,-,N/A,Fog,Fog,0,2012-03-14 12:16:00
7:24 AM,57.2,57.2,100,30.26,0.5,Calm,Calm,-,N/A,Fog,Fog,0,2012-03-14 12:24:00
7:26 AM,59.0,57.2,94,30.26,0.5,Calm,Calm,-,N/A,Fog,Fog,0,2012-03-14 12:26:00
7:49 AM,59.0,59.0,100,30.26,0.2,Calm,Calm,-,N/A,Fog,Fog,0,2012-03-14 12:49:00
7:58 AM,58.8,58.8,100,30.29,0.5,Calm,Calm,-,N/A,Fog,Fog,0,2012-03-14 12:58:00
8:02 AM,59.0,59.0,100,30.27,0.5,Calm,Calm,-,N/A,Fog,Fog,0,2012-03-14 13:02:00
8:03 AM,59.0,59.0,100,30.27,0.5,Calm,Calm,-,N/A,Fog,Fog,0,2012-03-14 13:03:00
8:04 AM,59.0,59.0,100,30.27,0.8,Calm,Calm,-,N/A,,Mist,0,2012-03-14 13:04:00
8:08 AM,59.0,59.0,100,30.27,1.0,Calm,Calm,-,N/A,,Mist,0,2012-03-14 13:08:00
8:10 AM,59.0,59.0,100,30.27,1.2,Calm,Calm,-,N/A,,Overcast,0,2012-03-14 13:10:00
8:11 AM,59.0,59.0,100,30.27,1.5,Calm,Calm,-,N/A,,Overcast,0,2012-03-14 13:11:00
8:13 AM,59.0,59.0,100,30.27,2.0,Calm,Calm,-,N/A,,Overcast,0,2012-03-14 13:13:00
8:15 AM,59.0,59.0,100,30.27,3.0,Calm,Calm,-,N/A,,Overcast,0,2012-03-14 13:15:00
8:21 AM,59.0,59.0,100,30.27,10.0,Calm,Calm,-,N/A,,Overcast,0,2012-03-14 13:21:00
8:28 AM,60.8,60.8,100,30.27,10.0,Calm,Calm,-,N/A,,Mostly Cloudy,0,2012-03-14 13:28:00
8:55 AM,62.4,62.4,100,30.28,10.0,Calm,Calm,-,N/A,,Clear,0,2012-03-14 13:55:00
9:55 AM,66.6,66.6,100,30.28,10.0,WNW,3.5,-,N/A,,Clear,300,2012-03-14 14:55:00
10:55 AM,73.9,64.6,72,30.28,10.0,WSW,6.9,-,N/A,,Clear,240,2012-03-14 15:55:00
11:55 AM,77.0,62.6,61,30.27,10.0,Calm,Calm,-,N/A,,Clear,0,2012-03-14 16:55:00
12:55 PM,79.3,61.3,54,30.24,10.0,Calm,Calm,-,N/A,,Clear,0,2012-03-14 17:55:00
1:55 PM,81.9,61.9,51,30.21,10.0,WSW,8.1,-,N/A,,Clear,240,2012-03-14 18:55:00
2:55 PM,81.0,60.3,49,30.19,10.0,WSW,6.9,-,N/A,,Clear,250,2012-03-14 19:55:00
3:55 PM,82.0,58.6,45,30.18,10.0,SW,5.8,-,N/A,,Partly Cloudy,230,2012-03-14 20:55:00
4:55 PM,83.1,58.5,43,30.17,10.0,Calm,Calm,-,N/A,,Partly Cloudy,0,2012-03-14 21:55:00
5:55 PM,81.3,61.7,51,30.17,10.0,Calm,Calm,-,N/A,,Scattered Clouds,0,2012-03-14 22:55:00
6:55 PM,73.2,60.1,63,30.18,10.0,West,5.8,-,N/A,,Clear,260,2012-03-14 23:55:00
7:55 PM,72.3,59.7,64,30.20,10.0,NW,3.5,-,N/A,,Clear,320,2012-03-15 00:55:00
8:55 PM,69.8,60.4,72,30.21,10.0,WNW,5.8,-,N/A,,Clear,300,2012-03-15 01:55:00
9:55 PM,68.4,60.6,76,30.24,10.0,Calm,Calm,-,N/A,,Clear,0,2012-03-15 02:55:00
10:55 PM,66.2,60.3,81,30.23,10.0,Calm,Calm,-,N/A,,Clear,0,2012-03-15 03:55:00
11:02 PM,66.2,59.0,78,30.24,10.0,Calm,Calm,-,N/A,,Light Drizzle,0,2012-03-15 04:02:00
11:06 PM,66.2,60.8,83,30.24,10.0,Calm,Calm,-,N/A,,Clear,0,2012-03-15 04:06:00
11:55 PM,63.1,59.9,89,30.23,10.0,SSW,3.5,-,0.00,,Clear,210,2012-03-15 04:55:00